createdAt,value
2018-06-14T00:04:46.064Z,63.2
2018-06-14T00:09:42.778Z,63.4
2018-06-14T00:14:39.147Z,63.5
2018-06-14T00:19:35.996Z,63.7
2018-06-14T00:24:32.508Z,64.3
2018-06-14T00:29:29.370Z,64.3
2018-06-14T00:34:25.315Z,64.3
2018-06-14T00:39:22.070Z,64.4
2018-06-14T00:44:18.781Z,64.7
2018-06-14T00:49:15.753Z,63.9
2018-06-14T00:54:12.404Z,64.5
2018-06-14T00:59:09.170Z,64.4
2018-06-14T01:04:05.806Z,64.6
2018-06-14T01:09:02.634Z,64.8
2018-06-14T01:13:59.253Z,64.8
2018-06-14T01:18:56.041Z,64.6
2018-06-14T01:23:52.941Z,64.3
2018-06-14T01:28:49.533Z,64.1
2018-06-14T01:33:46.404Z,64
2018-06-14T01:38:43.222Z,65
2018-06-14T01:43:39.721Z,66
2018-06-14T01:48:36.604Z,65.9
2018-06-14T01:53:33.313Z,66.7
2018-06-14T01:58:29.789Z,66.9
2018-06-14T02:03:26.234Z,67.1
2018-06-14T02:08:23.213Z,67.6
2018-06-14T02:13:19.930Z,67.7
2018-06-14T02:18:16.871Z,67.3
2018-06-14T02:23:13.525Z,67.7
2018-06-14T02:28:10.304Z,67.7
2018-06-14T02:33:07.371Z,67.6
2018-06-14T02:38:04.143Z,67.3
2018-06-14T02:43:01.376Z,67.7
2018-06-14T02:47:57.589Z,67.3
2018-06-14T02:52:53.864Z,67.6
2018-06-14T02:57:50.575Z,67.3
2018-06-14T03:02:47.566Z,67
2018-06-14T03:07:44.254Z,67.1
2018-06-14T03:12:40.990Z,67.1
2018-06-14T03:17:37.866Z,66.9
2018-06-14T03:22:33.968Z,67
2018-06-14T03:27:31.040Z,67.1
2018-06-14T03:32:27.594Z,67.2
2018-06-14T03:37:24.453Z,67.3
2018-06-14T03:42:20.831Z,67.8
2018-06-14T03:47:17.353Z,67.5
2018-06-14T03:52:14.288Z,67.5
2018-06-14T03:57:11.079Z,67.3
2018-06-14T04:02:08.091Z,67.5
2018-06-14T04:07:04.742Z,67.5
2018-06-14T04:12:01.351Z,67.7
2018-06-14T04:16:57.466Z,67.6
2018-06-14T04:21:54.004Z,67.7
2018-06-14T04:26:50.577Z,67.4
2018-06-14T04:31:47.262Z,67.6
2018-06-14T04:36:44.138Z,68
2018-06-14T04:41:41.092Z,67.9
2018-06-14T04:46:37.504Z,67.8
2018-06-14T04:51:34.246Z,67.9
2018-06-14T04:56:30.888Z,68.1
2018-06-14T05:01:27.609Z,68
2018-06-14T05:06:24.744Z,67.7
2018-06-14T05:11:21.254Z,67.5
2018-06-14T05:16:17.802Z,66.9
2018-06-14T05:21:14.622Z,67
2018-06-14T05:26:11.289Z,66.6
2018-06-14T05:31:07.965Z,66.9
2018-06-14T05:36:03.496Z,66.5
2018-06-14T05:41:00.113Z,66.7
2018-06-14T05:45:56.876Z,66.7
2018-06-14T05:50:53.490Z,66.6
2018-06-14T05:55:50.204Z,64.6
2018-06-14T06:00:46.937Z,64.5
2018-06-14T06:05:43.859Z,64.5
2018-06-14T06:10:40.521Z,63.8
2018-06-14T06:15:37.152Z,63.5
2018-06-14T06:20:34.036Z,64
2018-06-14T06:25:30.526Z,63.2
2018-06-14T06:30:27.229Z,63.7
2018-06-14T06:35:24.112Z,64
2018-06-14T06:40:20.831Z,63.8
2018-06-14T06:45:17.883Z,63.3
2018-06-14T06:50:19.195Z,63.2
2018-06-14T06:55:14.799Z,63.1
2018-06-14T07:00:11.557Z,63.1
2018-06-14T07:05:08.257Z,63.3
2018-06-14T07:10:04.948Z,63.3
2018-06-14T07:15:01.873Z,62.8
2018-06-14T07:19:59.266Z,62.5
2018-06-14T07:24:56.327Z,61.9
2018-06-14T07:29:52.915Z,61.2
2018-06-14T07:34:49.858Z,61.3
2018-06-14T07:39:46.862Z,60.8
2018-06-14T07:44:43.570Z,60.6
2018-06-14T07:49:40.359Z,60.3
2018-06-14T07:54:40.140Z,60.3
2018-06-14T07:59:36.097Z,59.9
2018-06-14T08:04:32.786Z,59.4
2018-06-14T08:09:29.489Z,59.5
2018-06-14T08:14:25.982Z,59.7
2018-06-14T08:19:22.968Z,59.9
2018-06-14T08:24:19.843Z,60.2
2018-06-14T08:29:16.671Z,60.2
2018-06-14T08:34:13.658Z,60
2018-06-14T08:39:10.408Z,60
2018-06-14T08:44:07.192Z,60
2018-06-14T08:49:04.609Z,59.8
2018-06-14T08:54:00.475Z,59.7
2018-06-14T08:58:56.923Z,60.4
2018-06-14T09:03:53.692Z,60.1
2018-06-14T09:08:50.536Z,60.2
2018-06-14T09:13:47.537Z,60
2018-06-14T09:18:44.248Z,59.7
2018-06-14T09:23:45.252Z,59.9
2018-06-14T09:28:40.963Z,59.8
2018-06-14T09:33:37.859Z,59.7
2018-06-14T09:38:34.268Z,59.4
2018-06-14T09:43:31.148Z,59.2
2018-06-14T09:48:28.115Z,59.2
2018-06-14T09:53:24.862Z,59.2
2018-06-14T09:58:21.913Z,58.4
2018-06-14T10:03:18.551Z,57.1
2018-06-14T10:08:15.095Z,57.8
2018-06-14T10:13:11.971Z,57.6
2018-06-14T10:18:08.889Z,57.8
2018-06-14T10:23:05.341Z,58.2
2018-06-14T10:28:02.316Z,58.2
2018-06-14T10:32:59.014Z,56.5
2018-06-14T10:37:55.775Z,54.8
2018-06-14T10:42:52.771Z,54
2018-06-14T10:47:49.523Z,53.5
2018-06-14T10:52:46.379Z,53.8
2018-06-14T10:57:43.211Z,53.1
2018-06-14T11:02:40.137Z,53.9
2018-06-14T11:07:37.686Z,53.6
2018-06-14T11:12:33.912Z,54.2
2018-06-14T11:17:30.691Z,53.6
2018-06-14T11:22:27.728Z,53.9
2018-06-14T11:27:24.845Z,53.1
2018-06-14T11:32:21.929Z,52.3
2018-06-14T11:37:18.616Z,51.4
2018-06-14T11:42:19.557Z,51.5
2018-06-14T11:47:15.733Z,50.7
2018-06-14T11:52:12.460Z,50.5
2018-06-14T11:57:09.544Z,50.7
2018-06-14T12:02:06.703Z,49.3
2018-06-14T12:07:03.491Z,47.4
2018-06-14T12:12:00.400Z,47
2018-06-14T12:16:57.402Z,46.5
2018-06-14T12:21:54.680Z,45.7
2018-06-14T12:26:51.584Z,45.4
2018-06-14T12:31:48.410Z,45.5
2018-06-14T12:36:45.274Z,44.9
2018-06-14T12:41:42.201Z,44.1
2018-06-14T12:46:39.233Z,43.9
2018-06-14T12:51:36.231Z,44.6
2018-06-14T12:56:32.838Z,44.9
2018-06-14T13:01:29.809Z,44.9
2018-06-14T13:06:26.464Z,46.1
2018-06-14T13:11:23.488Z,47.4
2018-06-14T13:16:20.431Z,48.3
2018-06-14T13:21:17.836Z,49.9
2018-06-14T13:26:14.554Z,50.5
2018-06-14T13:31:11.259Z,50.8
2018-06-14T13:36:08.247Z,51.2
2018-06-14T13:41:05.045Z,51.9
2018-06-14T13:46:01.681Z,53.2
2018-06-14T13:50:58.335Z,53.3
2018-06-14T13:55:54.901Z,53.8
2018-06-14T14:00:51.606Z,54.5
2018-06-14T14:05:48.250Z,54.7
2018-06-14T14:10:45.107Z,54.5
2018-06-14T14:15:42.089Z,55
2018-06-14T14:20:38.853Z,54.3
2018-06-14T14:25:35.895Z,54.5
2018-06-14T14:30:32.715Z,55.3
2018-06-14T14:35:29.768Z,55.7
2018-06-14T14:40:26.645Z,55.1
2018-06-14T14:45:23.562Z,54.9
2018-06-14T14:50:20.550Z,54.5
2018-06-14T14:55:17.564Z,53.5
2018-06-14T15:00:14.297Z,53.3
2018-06-14T15:05:11.078Z,53.2
2018-06-14T15:10:07.829Z,53.2
2018-06-14T15:15:04.414Z,52.8
2018-06-14T15:20:01.201Z,52.6
2018-06-14T15:24:58.074Z,52.5
2018-06-14T15:29:54.343Z,52.8
2018-06-14T15:34:51.161Z,52.7
2018-06-14T15:39:48.088Z,52.5
2018-06-14T15:44:44.594Z,52.6
2018-06-14T15:49:41.106Z,52.4
2018-06-14T15:54:37.743Z,52.5
2018-06-14T15:59:34.715Z,52.4
2018-06-14T16:04:31.397Z,52.4
2018-06-14T16:09:28.112Z,52.4
2018-06-14T16:14:25.288Z,52.4
2018-06-14T16:19:22.245Z,52.9
2018-06-14T16:24:18.930Z,53.3
2018-06-14T16:29:15.499Z,54.1
2018-06-14T16:34:12.100Z,54.3
2018-06-14T16:39:09.095Z,54.3
2018-06-14T16:44:05.951Z,54.4
2018-06-14T16:49:02.766Z,54.5
2018-06-14T16:53:59.468Z,54.7
2018-06-14T16:58:55.785Z,54.8
2018-06-14T17:03:52.805Z,54.9
2018-06-14T17:08:49.996Z,55
2018-06-14T17:13:46.945Z,54.7
2018-06-14T17:18:43.857Z,54.6
2018-06-14T17:23:40.867Z,54.5
2018-06-14T17:28:37.513Z,54.3
2018-06-14T17:33:34.700Z,54.4
2018-06-14T17:38:31.784Z,54.5
2018-06-14T17:43:28.548Z,54.3
2018-06-14T17:48:24.798Z,54.4
2018-06-14T17:53:21.175Z,54.6
2018-06-14T17:58:17.937Z,54.8
2018-06-14T18:03:14.584Z,55
2018-06-14T18:08:11.232Z,55.3
2018-06-14T18:13:08.209Z,55.7
2018-06-14T18:18:05.415Z,55.9
2018-06-14T18:23:02.216Z,55.8
2018-06-14T18:28:01.629Z,55.8
2018-06-14T18:32:57.770Z,55.5
2018-06-14T18:37:54.663Z,55.4
2018-06-14T18:42:51.174Z,55.5
2018-06-14T18:47:48.293Z,55.7
2018-06-14T18:52:44.724Z,55.9
2018-06-14T18:57:41.666Z,56.2
2018-06-14T19:02:38.157Z,56.5
2018-06-14T19:07:34.846Z,56.6
2018-06-14T19:12:31.019Z,57
2018-06-14T19:17:28.116Z,57.6
2018-06-14T19:22:24.792Z,57.4
2018-06-14T19:27:21.322Z,58
2018-06-14T19:32:18.095Z,58.3
2018-06-14T19:37:15.005Z,58.8
2018-06-14T19:42:12.046Z,58.8
2018-06-14T19:47:08.923Z,58.9
2018-06-14T19:52:05.592Z,58.9
2018-06-14T19:57:03.090Z,59.2
2018-06-14T20:01:59.923Z,59.3
2018-06-14T20:06:56.256Z,59.6
2018-06-14T20:11:52.906Z,60.1
2018-06-14T20:16:49.667Z,59.7
2018-06-14T20:21:46.325Z,59.8
2018-06-14T20:26:42.881Z,59.8
2018-06-14T20:31:39.512Z,61.6
2018-06-14T20:36:36.128Z,62.1
2018-06-14T20:41:33.053Z,61.8
2018-06-14T20:46:29.790Z,61.9
2018-06-14T20:51:26.546Z,62.2
2018-06-14T20:56:23.313Z,62
2018-06-14T21:01:20.114Z,62.2
2018-06-14T21:06:17.095Z,63
2018-06-14T21:11:13.619Z,62.7
2018-06-14T21:16:10.735Z,62.8
2018-06-14T21:21:07.432Z,62.6
2018-06-14T21:26:04.380Z,62.6
2018-06-14T21:31:01.064Z,62.8
2018-06-14T21:35:57.954Z,63.3
2018-06-14T21:40:54.429Z,63.5
2018-06-14T21:45:51.347Z,64.3
2018-06-14T21:50:48.412Z,64.1
2018-06-14T21:55:45.285Z,64.1
2018-06-14T22:00:42.334Z,64
2018-06-14T22:05:39.145Z,64.4
2018-06-14T22:10:35.841Z,64.5
2018-06-14T22:15:32.815Z,64.6
2018-06-14T22:20:29.777Z,64.9
2018-06-14T22:25:26.453Z,64.2
2018-06-14T22:30:23.108Z,63.9
2018-06-14T22:35:19.838Z,64.1
2018-06-14T22:40:16.808Z,64.1
2018-06-14T22:45:13.595Z,64
2018-06-14T22:50:10.341Z,64
2018-06-14T22:55:07.259Z,63.9
2018-06-14T23:00:04.033Z,64.1
2018-06-14T23:05:00.709Z,63.6
2018-06-14T23:09:57.335Z,63.5
2018-06-14T23:14:54.080Z,63.4
2018-06-14T23:19:51.001Z,63.6
2018-06-14T23:24:47.328Z,63.4
2018-06-14T23:29:44.478Z,63.2
2018-06-14T23:34:41.477Z,63.3
2018-06-14T23:39:38.411Z,63.3
2018-06-14T23:44:35.256Z,63.8
2018-06-14T23:49:31.616Z,63.5
2018-06-14T23:54:28.563Z,63.6
2018-06-14T23:59:25.653Z,63.5
